Scroll down
FLIGHT INFORMATION
Delta Air Lines

DAL9938

At Arrival Gate

KLAX
 PHKO
DATE: 2020-07-29
GATE:  -
GATE DEPARTURE: 15:02
TAKEOFF: 15:09
DATE: 2020-07-29
GATE:  -
LANDING: 20:39
GATE ARRIVAL: 20:42
FLIGHT DATA
Crew: 
Speed: 
468 kts
Altitude: 
38,020 ft
Stage Length: 
2,173.6 nm
Block Time: 
5.6 hrs
Flight Time: 
5.5 hrs
Fuel Used: 
28,151 lb
Cleared Route: OLOFF DINTY DUETS DADIE DIALO DUSAC DRAYK DENNS SOLCE SOMOH MAGGI BAMBO GRITL CKH OOKAH RW08L
TRACK DATA
50,000 ft 1,000 kts
AIRCRAFT INFO AND CUMULATIVE STATS
Aircraft Type: 
B739ERSSW
Registration: 
SELCAL: 
CJAF
MSN/LN: 
31946 / 5290
Operator: 
Total Flights: 
10
Total Block Time: 
40.8 hrs
Total Flight Time: 
38.8 hrs
Total Fuel Time: 
222,420 lb
DATALINK LOG | Newest first | Current as of: 2021-06-14 11:02:11
LABEL SEQUENCE CONTENT Dn/Up
QD462220:42 17.9▼ Dn
QC432220:39▼ Dn
2U1416PHKO 300053Z 21008KT 10SM SCT050 SCT070 29/21 A2992 RMK AO2 SLP129 T02940206▲ Up
2S1758PHKO▼ Dn
QB393815:09▼ Dn
QA303915:02 46.1▼ Dn
2U4037KLAX 292104Z 27011KT 10SM SCT012 20/14 A2991 RMK AO2 T02000144 $▲ Up
2S4109KLAX▼ Dn
Q03608[LINK ACK]▲ Up
Q03608[LINK TEST]▼ Dn


AIRCRAFT HISTORY
FLIGHT DATE FLIGHT NO. ORIGIN DESTINATION CLEARED ROUTE BLOCK TIME FLIGHT TIME FUEL USED PILOT
2021-06-01DAL601KJFK KATL KJFK RBV COPES BYRDD HAAGN PENSY EMI CSN MOL FLASK KATL2.2 hrs2 hrs12,912 lbAlex K.
2021-06-01DAL601KPDX KJFK KPDX PDT HLN MLS KINGZ NOTAP TULEG PRNCE IGN KJFK5.1 hrs5 hrs31,345 lbAlex K.
2021-01-24DAL1914PHOG KPDX PHOG APACK ZOULU ZEMOM ZINNO ZAGER 42N33 HEMLO ONP UBG KPDX5.7 hrs5.5 hrs35,374 lbMike Dryden
2021-01-23DAL1914PHLI PHOG PHLI HNL OORRR PALAY KOLTE ROSHE HAVBI LNY PHOG0.8 hrs0.6 hrs5,713 lbMike Dryden
2020-10-30DAL1914NSTU PHLI NSTU TUTNB LAKER BUDRA 05W66 00N64 05N63 10N62 15N61 LNY HAVBI ROSHE KOLTE PALAY OORRR HNL SHIGI BOOKE OLOYI LIH PHLI5.6 hrs5.4 hrs27,444 lbMike Dryden
2020-10-28DAL1914NFTF NSTU NFTF EKEDI OGELA DRAWN TUTNB NSTU1.6 hrs1.4 hrs8,192 lbMike Dryden
2020-10-25DAL1914NZWN NFTF NZWN KAMET BINIT PM YARRO NR DOMON GOTNO HAWKE GS IBESO AUTEL FAROA RUGRO ONETU TUTNB NSTU3.9 hrs3.7 hrs22,189 lbMike Dryden
2020-08-01DAL9938NSTU NZWN NSTU ONETU RUGRO FAROA AUTEL IBESO GS HAWKE GOTNO DOMON NR YARRO PM LIMPA DOGAD NZWN4.8 hrs4.5 hrs22,582 lbMark Adeane
2020-07-30DAL9938PHKO NSTU PHKO ANDES AMERY DATBE EGKEL EBEBE ELLMS BUDRA LAKER TUT SUMLE RW235.5 hrs5.3 hrs28,519 lbMark Adeane
2020-07-29DAL9938KLAX PHKO OLOFF DINTY DUETS DADIE DIALO DUSAC DRAYK DENNS SOLCE SOMOH MAGGI BAMBO GRITL CKH OOKAH RW08L5.6 hrs5.5 hrs28,151 lbMark Adeane